Kirkwood, CA (95646)

11:32 AM PDT on August 30, 2015 (GMT -0700)
Charity Valley | | Change Station
CLOSE
Current Station
Personal Weather Station
Location: Markleeville, CA
Elevation: 7770 ft
Nearby Weather Stations

Elev 7770 ft 38.68 °N, 119.92 °W | Updated 7 minutes ago

Clear
Clear
59.6 °F
Feels Like 59.6 °F
N
11.0
Wind Variable Wind from SW
Gusts 11.0 mph

Today
High -- | Low -- °F
--% Chance of Precip.
Yesterday
High -- | Low -- °F
Precip. -- in
6:27 AM 7:33 PM
Full, 98% visible
Pressure 30.00 in
Visibility 10.0 miles
Clouds Clear
Dew Point 39 °F
Humidity 46%
Rainfall 0.00 in
Snow Depth Not available.
UV 8 out of 12
Pollen 7.90 out of 12
Air Quality Not available.
Flu Activity Not available.
METAR KTVL 301753Z AUTO 20008G19KT 180V250 10SM CLR 21/04 A3018 RMK AO2 SLP159 T02110039 10211 20150 53005
Pressure 30.00 in
Visibility 10.0 miles
Clouds Clear
Dew Point 39 °F
Humidity 46%
Rainfall 0.00 in
Snow Depth Not available.
UV 8 out of 12
Pollen 7.90 out of 12
Air Quality Not available.
Flu Activity Not available.
METAR KTVL 301753Z AUTO 20008G19KT 180V250 10SM CLR 21/04 A3018 RMK AO2 SLP159 T02110039 10211 20150 53005

10-Day Weather Forecast

×

Almanac

Astronomy

Aug. 30, 2015 Rise Set
Actual Time
Civil Twilight
Nautical Twilight
Astronomical Twilight
Moon
Length of Visible Light
Length of Day
Tomorrow will be .
, % of the Moon is Illuminated

Today's Extremes

State Highs State Lows

Community

WunderPhotos

Upload Photos

1,851,031 photos uploaded!

WunderBlogs® & News

Nearby

Air Quality

  Air Quality AQ Index Pollutant
Not available.

Snow Depth

Station Depth Elevation

Earthquake Activity

City Distance Mag. Time & Date
Minimum magnitude displayed is 2.5.

Coastal Water Temperatures

Place Temperature

Stations

Nearby Weather Stations

Station Location Temp. Windchill Dew Point Humidity Wind Precip. Elev Updated Type